Alvord, Texas
Current Conditions -  °F | °C
As of 3:35 PM on Thursday 27 Nov 2014 (Local Time) from KLUD Reporting Station
Clear Clear  
Wind Chill: 55°   Ceiling: Unl
Heat Index: 55°   Visibility: 10mi
Dew Point: 21°   Wind: 3mph
Humidity: 27%   Direction: 150°SSE
Pressure: 30.41"   Gusts: NA
Location:  33.36°N, 97.69°W
Report Text: KLUD 272135Z AUTO 15003KT 10SM CLR 13/M06 A3041 RMK AO2 T01281059
Loading
Personal Weather Stations






























Interactive Weather Map New forecast layout! Learn more

10-Day Weather Forecast

Advertisements
Track Severe Weather on mobile